Time;durP1;ratioP1;P1;durP2;ratioP2;P2;SDS_P1;SDS_P2;PMS_P1;PMS_P2;Temp;Humidity;BMP_temperature;BMP_pressure;BME280_temperature;BME280_humidity;BME280_pressure;Samples;Min_cycle;Max_cycle;Signal;HPM_P1;HPM_P2
2021/09/18 00:00:57;;;;;;;28.85;15.08;;;;;;;13.07;100.00;100625.84;1739869;81;21019;-82
2021/09/18 00:03:25;;;;;;;25.25;14.90;;;;;;;13.13;100.00;100631.84;1769293;81;21128;-84
2021/09/18 00:05:53;;;;;;;23.77;14.30;;;;;;;13.18;100.00;100626.22;1739766;81;21057;-85
2021/09/18 00:08:20;;;;;;;23.55;14.43;;;;;;;13.23;100.00;100630.10;1740148;81;21002;-83
2021/09/18 00:10:47;;;;;;;24.02;14.35;;;;;;;13.28;100.00;100631.48;1739472;80;21067;-84
2021/09/18 00:13:14;;;;;;;31.37;15.08;;;;;;;13.30;100.00;100632.99;1739969;81;21018;-84
2021/09/18 00:15:43;;;;;;;33.75;14.87;;;;;;;13.36;100.00;100626.41;1770128;80;21058;-81
2021/09/18 00:18:10;;;;;;;27.55;15.10;;;;;;;13.42;100.00;100625.90;1770336;81;21171;-83
2021/09/18 00:20:39;;;;;;;24.07;13.88;;;;;;;13.49;100.00;100628.36;1770069;81;21041;-83
2021/09/18 00:23:06;;;;;;;30.35;14.73;;;;;;;13.53;100.00;100629.73;1740141;80;21038;-82
2021/09/18 00:25:35;;;;;;;36.75;15.48;;;;;;;13.59;100.00;100626.22;1769962;80;20986;-81
2021/09/18 00:28:04;;;;;;;23.70;14.60;;;;;;;13.64;100.00;100627.97;1770199;81;21993;-82
2021/09/18 00:30:30;;;;;;;26.48;15.20;;;;;;;13.68;100.00;100631.95;1739983;81;21174;-84
2021/09/18 00:33:02;;;;;;;20.17;14.20;;;;;;;13.69;100.00;100629.69;1739719;81;21548;-84
2021/09/18 00:35:29;;;;;;;22.07;14.87;;;;;;;13.69;100.00;100627.07;1739875;81;21565;-84
2021/09/18 00:37:57;;;;;;;27.00;14.90;;;;;;;13.67;100.00;100623.75;1739822;81;21528;-84
2021/09/18 00:40:24;;;;;;;23.67;14.38;;;;;;;13.65;100.00;100625.20;1770051;80;21818;-86
2021/09/18 00:42:52;;;;;;;23.83;14.20;;;;;;;13.65;100.00;100621.28;1739669;81;20990;-83
2021/09/18 00:45:21;;;;;;;21.40;14.00;;;;;;;13.61;100.00;100613.37;1770227;81;21085;-82
2021/09/18 00:47:50;;;;;;;21.02;14.07;;;;;;;13.54;100.00;100607.84;1769760;80;21097;-84
2021/09/18 00:50:17;;;;;;;24.18;14.13;;;;;;;13.45;100.00;100611.27;1739916;81;21104;-83
2021/09/18 00:52:44;;;;;;;25.57;13.98;;;;;;;13.36;100.00;100609.41;1739971;81;21663;-83
2021/09/18 00:55:13;;;;;;;23.25;14.65;;;;;;;13.26;100.00;100603.67;1739699;80;21537;-84
2021/09/18 00:57:43;;;;;;;20.70;14.25;;;;;;;13.23;100.00;100602.64;1770190;81;21067;-84
2021/09/18 01:00:16;;;;;;;21.93;14.43;;;;;;;13.26;100.00;100606.28;1770031;81;21054;-83
2021/09/18 01:02:43;;;;;;;23.20;14.60;;;;;;;13.28;100.00;100604.86;1769731;81;21030;-83
2021/09/18 01:05:11;;;;;;;30.80;16.15;;;;;;;13.27;100.00;100605.82;1740386;81;22131;-85
2021/09/18 01:07:40;;;;;;;25.43;14.38;;;;;;;13.24;100.00;100595.16;1770059;81;20994;-85
2021/09/18 01:10:09;;;;;;;24.05;15.50;;;;;;;13.23;100.00;100593.95;1770117;80;21054;-83
2021/09/18 01:13:09;;;;;;;22.87;14.75;;;;;;;13.26;100.00;100597.13;1740039;81;21047;-83
2021/09/18 01:15:38;;;;;;;26.15;15.75;;;;;;;13.29;100.00;100584.76;1770336;80;21101;-84
2021/09/18 01:18:08;;;;;;;23.42;14.75;;;;;;;13.28;100.00;100585.72;1739705;81;21088;-86
2021/09/18 01:20:39;;;;;;;32.20;15.18;;;;;;;13.31;100.00;100585.46;1770259;81;20963;-83
2021/09/18 01:23:08;;;;;;;28.32;16.37;;;;;;;13.35;100.00;100582.91;1739770;81;21027;-83
2021/09/18 01:25:39;;;;;;;30.52;16.05;;;;;;;13.39;100.00;100581.73;1739779;81;21042;-83
2021/09/18 01:28:08;;;;;;;26.33;15.65;;;;;;;13.41;100.00;100583.23;1770180;81;21512;-83
2021/09/18 01:30:38;;;;;;;28.12;16.20;;;;;;;13.41;100.00;100585.04;1769951;81;21026;-84
2021/09/18 01:33:08;;;;;;;25.32;16.57;;;;;;;13.36;100.00;100585.87;1770037;80;21026;-83
2021/09/18 01:35:37;;;;;;;24.63;16.62;;;;;;;13.26;100.00;100586.67;1770436;81;21050;-85
2021/09/18 01:38:05;;;;;;;29.00;17.48;;;;;;;13.17;100.00;100582.27;1739994;81;21045;-84
2021/09/18 01:40:37;;;;;;;22.77;15.53;;;;;;;13.10;100.00;100582.42;1739878;81;21568;-85
2021/09/18 01:43:05;;;;;;;24.63;15.72;;;;;;;13.04;100.00;100576.42;1739767;81;21107;-83
2021/09/18 01:45:34;;;;;;;31.15;16.48;;;;;;;12.99;100.00;100583.36;1740063;81;21554;-84
2021/09/18 01:48:05;;;;;;;28.67;17.52;;;;;;;12.96;100.00;100586.25;1769979;80;21046;-82
2021/09/18 01:50:47;;;;;;;30.23;17.32;;;;;;;12.90;100.00;100586.75;1769717;80;21054;-84
2021/09/18 01:53:19;;;;;;;26.33;17.45;;;;;;;12.80;100.00;100591.94;1767305;80;21054;-86
2021/09/18 01:55:47;;;;;;;44.05;18.60;;;;;;;12.67;100.00;100590.03;1721555;82;21155;-84
2021/09/18 01:58:15;;;;;;;35.05;17.57;;;;;;;12.56;100.00;100588.33;1721562;82;21478;-85
2021/09/18 02:00:49;;;;;;;23.07;15.98;;;;;;;12.52;100.00;100589.06;1744063;82;20998;-83
2021/09/18 02:03:27;;;;;;;27.93;17.00;;;;;;;12.59;100.00;100589.36;1742104;82;21030;-83
2021/09/18 02:05:53;;;;;;;27.05;16.50;;;;;;;12.63;100.00;100588.97;1744026;82;21062;-85
2021/09/18 02:08:31;;;;;;;27.65;17.37;;;;;;;12.63;100.00;100592.89;1749686;80;21050;-84
2021/09/18 02:11:10;;;;;;;29.95;17.92;;;;;;;12.75;100.00;100589.72;1712104;81;21042;-84
2021/09/18 02:13:37;;;;;;;26.45;17.20;;;;;;;12.86;100.00;100588.80;1762382;80;21010;-86
2021/09/18 02:16:05;;;;;;;36.05;18.75;;;;;;;12.97;100.00;100586.60;1768357;80;21632;-83
2021/09/18 02:18:34;;;;;;;26.85;19.00;;;;;;;13.05;100.00;100580.23;1764622;80;21061;-83
2021/09/18 02:21:01;;;;;;;40.23;17.92;;;;;;;13.13;100.00;100583.48;1764922;81;21883;-86
2021/09/18 02:23:30;;;;;;;46.18;19.37;;;;;;;13.19;100.00;100585.55;1764659;80;21853;-83
2021/09/18 02:25:58;;;;;;;33.75;17.65;;;;;;;13.23;100.00;100588.27;1755939;80;21003;-84
2021/09/18 02:28:27;;;;;;;32.10;17.40;;;;;;;13.30;100.00;100582.00;1744118;80;21061;-85
2021/09/18 02:30:54;;;;;;;24.92;17.37;;;;;;;13.35;100.00;100578.52;1734205;81;21042;-85
2021/09/18 02:33:21;;;;;;;31.42;17.92;;;;;;;13.36;100.00;100574.11;1733868;82;21817;-84
2021/09/18 02:35:48;;;;;;;27.60;18.25;;;;;;;13.40;100.00;100569.00;1734188;81;21235;-84
2021/09/18 02:38:17;;;;;;;24.10;17.27;;;;;;;13.44;100.00;100576.09;1744338;80;20998;-85
2021/09/18 02:40:51;;;;;;;32.70;17.82;;;;;;;13.45;100.00;100568.10;1744656;80;21043;-84
2021/09/18 02:43:15;;;;;;;26.82;17.55;;;;;;;13.45;100.00;100572.03;1742941;80;21049;-84
2021/09/18 02:45:43;;;;;;;27.35;18.00;;;;;;;13.47;100.00;100570.58;1744364;81;21078;-85
2021/09/18 02:48:12;;;;;;;28.12;17.62;;;;;;;13.48;100.00;100569.16;1738512;81;21011;-84
2021/09/18 02:50:41;;;;;;;26.33;17.98;;;;;;;13.50;100.00;100567.20;1768058;80;20990;-86
2021/09/18 02:53:09;;;;;;;26.95;17.80;;;;;;;13.49;100.00;100565.58;1767730;81;20943;-87
2021/09/18 02:55:36;;;;;;;37.53;18.55;;;;;;;13.50;100.00;100569.82;1767998;80;21430;-83
2021/09/18 02:58:03;;;;;;;34.83;18.42;;;;;;;13.52;100.00;100567.09;1739442;81;21120;-86
2021/09/18 03:00:32;;;;;;;31.42;18.15;;;;;;;13.53;100.00;100568.25;1768769;80;21000;-84
2021/09/18 03:02:59;;;;;;;39.75;18.23;;;;;;;13.55;100.00;100572.87;1763602;80;21011;-86
2021/09/18 03:05:28;;;;;;;52.78;19.02;;;;;;;13.56;100.00;100573.69;1760702;80;21043;-84
2021/09/18 03:07:55;;;;;;;34.30;19.12;;;;;;;13.60;100.00;100580.32;1753455;80;21055;-85
2021/09/18 03:10:23;;;;;;;44.25;19.30;;;;;;;13.61;100.00;100580.67;1749317;81;21787;-86
2021/09/18 03:12:50;;;;;;;47.25;18.92;;;;;;;13.61;100.00;100582.44;1733623;80;21009;-88
2021/09/18 03:15:18;;;;;;;44.85;20.25;;;;;;;13.61;100.00;100583.28;1758012;80;21054;-85
2021/09/18 03:17:45;;;;;;;49.35;21.20;;;;;;;13.63;100.00;100572.67;1737465;80;21382;-84
2021/09/18 03:20:13;;;;;;;30.90;19.98;;;;;;;13.72;100.00;100571.86;1738641;80;21057;-85
2021/09/18 03:22:42;;;;;;;92.67;27.65;;;;;;;13.80;100.00;100574.62;1753521;80;21049;-85
2021/09/18 03:25:11;;;;;;;47.73;25.85;;;;;;;13.87;100.00;100569.64;1754342;80;21150;-85
2021/09/18 03:27:38;;;;;;;50.25;24.15;;;;;;;13.94;100.00;100567.30;1739673;80;21172;-84
2021/09/18 03:30:08;;;;;;;39.95;21.57;;;;;;;13.90;100.00;100568.06;1753212;80;21036;-87
2021/09/18 03:32:39;;;;;;;35.08;18.37;;;;;;;13.83;100.00;100569.09;1757440;80;20951;-84
2021/09/18 03:35:08;;;;;;;27.17;17.82;;;;;;;13.72;100.00;100567.44;1771874;79;21076;-87
2021/09/18 03:37:35;;;;;;;25.55;16.57;;;;;;;13.50;100.00;100573.75;1739168;80;21498;-85
2021/09/18 03:40:08;;;;;;;26.20;16.55;;;;;;;13.31;100.00;100577.61;1753326;80;21063;-83
2021/09/18 03:42:35;;;;;;;77.40;19.42;;;;;;;13.16;100.00;100578.00;1739674;80;21036;-84
2021/09/18 03:45:05;;;;;;;64.65;19.50;;;;;;;13.06;100.00;100575.33;1757872;80;21045;-85
2021/09/18 03:47:31;;;;;;;44.33;18.07;;;;;;;13.03;100.00;100576.08;1732706;81;21161;-88
2021/09/18 03:49:59;;;;;;;26.30;19.60;;;;;;;13.05;100.00;100568.48;1729551;80;21073;-88
2021/09/18 03:52:26;;;;;;;30.25;19.80;;;;;;;13.08;100.00;100568.69;1740511;81;21155;-84
2021/09/18 03:54:55;;;;;;;31.50;20.68;;;;;;;13.08;100.00;100575.22;1730946;80;21133;-85
2021/09/18 03:57:23;;;;;;;33.92;22.10;;;;;;;13.11;100.00;100581.47;1740757;81;21032;-84
2021/09/18 03:59:50;;;;;;;32.15;22.42;;;;;;;13.13;100.00;100577.44;1720756;81;21246;-83
2021/09/18 04:02:19;;;;;;;41.15;21.60;;;;;;;13.10;100.00;100575.42;1740777;81;21026;-85
2021/09/18 04:04:46;;;;;;;38.58;22.50;;;;;;;13.10;100.00;100578.05;1724702;82;21502;-91
2021/09/18 04:07:13;;;;;;;30.75;21.07;;;;;;;13.10;100.00;100575.89;1738345;80;21547;-83
2021/09/18 04:09:41;;;;;;;37.58;20.62;;;;;;;13.09;100.00;100572.95;1730669;81;20986;-86
2021/09/18 04:12:08;;;;;;;33.33;21.62;;;;;;;13.06;100.00;100575.82;1730437;80;21814;-86
2021/09/18 04:14:35;;;;;;;27.70;20.92;;;;;;;13.04;100.00;100579.05;1743683;80;20985;-82
2021/09/18 04:17:04;;;;;;;27.05;20.00;;;;;;;13.03;100.00;100577.38;1740333;80;21060;-87
2021/09/18 04:19:31;;;;;;;27.25;20.32;;;;;;;13.01;100.00;100576.22;1725202;81;21059;-88
2021/09/18 04:22:00;;;;;;;29.10;20.65;;;;;;;13.01;100.00;100578.83;1727884;81;21533;-84
2021/09/18 04:24:28;;;;;;;28.55;19.50;;;;;;;13.03;100.00;100576.08;1724624;81;21047;-87
2021/09/18 04:26:56;;;;;;;25.15;19.27;;;;;;;13.04;100.00;100575.97;1740500;80;20985;-86
2021/09/18 04:29:23;;;;;;;25.32;18.80;;;;;;;13.08;100.00;100575.22;1727368;81;21007;-84
2021/09/18 04:31:50;;;;;;;30.55;19.98;;;;;;;13.14;100.00;100572.06;1732982;81;21560;-82
2021/09/18 04:34:18;;;;;;;24.02;18.62;;;;;;;13.19;100.00;100575.59;1702891;80;21620;-82
2021/09/18 04:36:45;;;;;;;25.92;18.85;;;;;;;13.28;100.00;100573.48;1740421;81;21112;-81
2021/09/18 04:39:13;;;;;;;27.98;18.57;;;;;;;13.36;100.00;100575.41;1768118;80;21090;-85
2021/09/18 04:41:42;;;;;;;25.97;18.20;;;;;;;13.46;100.00;100572.37;1764448;80;21015;-84
2021/09/18 04:44:11;;;;;;;29.02;18.50;;;;;;;13.57;100.00;100579.27;1714049;82;21546;-87
2021/09/18 04:46:37;;;;;;;23.20;17.52;;;;;;;13.65;100.00;100577.30;1708417;84;21023;-85
2021/09/18 04:49:04;;;;;;;21.90;16.73;;;;;;;13.73;100.00;100576.14;1702279;82;21786;-89
2021/09/18 04:51:32;;;;;;;23.67;16.02;;;;;;;13.82;100.00;100569.23;1723692;82;21082;-83
2021/09/18 04:53:59;;;;;;;18.37;15.30;;;;;;;13.90;100.00;100575.92;1698745;83;21090;-82
2021/09/18 04:56:26;;;;;;;17.90;14.13;;;;;;;13.98;100.00;100576.55;1707082;83;22085;-84
2021/09/18 04:58:54;;;;;;;17.95;11.80;;;;;;;14.09;100.00;100575.58;1688243;83;21051;-83
2021/09/18 05:01:21;;;;;;;13.70;10.15;;;;;;;14.20;100.00;100579.34;1710282;82;21127;-81
2021/09/18 05:03:49;;;;;;;14.33;9.95;;;;;;;14.31;100.00;100577.88;1696144;82;21102;-83
2021/09/18 05:06:17;;;;;;;13.25;9.68;;;;;;;14.45;100.00;100588.88;1670249;83;21113;-86
2021/09/18 05:08:45;;;;;;;14.93;10.23;;;;;;;14.56;100.00;100591.34;1652968;85;21063;-83
2021/09/18 05:11:13;;;;;;;13.45;9.98;;;;;;;14.70;100.00;100586.64;1673945;84;22015;-85
2021/09/18 05:13:42;;;;;;;12.98;9.40;;;;;;;14.83;100.00;100583.20;1673859;84;21038;-83
2021/09/18 05:16:11;;;;;;;12.55;9.08;;;;;;;14.95;100.00;100574.20;1674079;84;21053;-83
2021/09/18 05:18:38;;;;;;;12.98;9.30;;;;;;;15.08;100.00;100577.80;1652987;85;21093;-90
2021/09/18 05:21:06;;;;;;;11.10;9.08;;;;;;;15.20;100.00;100568.41;1673941;84;21898;-87
2021/09/18 05:23:34;;;;;;;11.25;8.65;;;;;;;15.30;100.00;100574.42;1674156;85;20991;-81
2021/09/18 05:26:03;;;;;;;14.58;9.30;;;;;;;15.40;100.00;100569.95;1673816;84;20964;-89
2021/09/18 05:28:30;;;;;;;12.70;8.58;;;;;;;15.51;100.00;100573.31;1652198;85;21608;-83
2021/09/18 05:30:59;;;;;;;13.15;8.30;;;;;;;15.63;100.00;100572.14;1673885;84;21078;-83
2021/09/18 05:33:27;;;;;;;15.45;7.95;;;;;;;15.78;100.00;100561.45;1674101;84;20995;-85
2021/09/18 05:35:55;;;;;;;12.78;8.25;;;;;;;15.96;100.00;100560.65;1673919;84;21778;-83
2021/09/18 05:38:22;;;;;;;10.35;7.53;;;;;;;16.17;100.00;100566.05;1652705;85;21066;-86
2021/09/18 05:40:50;;;;;;;9.53;6.85;;;;;;;16.37;100.00;100561.41;1652847;85;21622;-86
2021/09/18 05:43:17;;;;;;;9.28;7.17;;;;;;;16.56;100.00;100561.69;1652739;85;21063;-86
2021/09/18 05:45:45;;;;;;;9.90;7.47;;;;;;;16.72;100.00;100560.46;1674126;84;21671;-87
2021/09/18 05:48:16;;;;;;;10.58;6.83;;;;;;;16.85;100.00;100561.34;1680887;82;21094;-85
2021/09/18 05:50:45;;;;;;;12.25;6.47;;;;;;;16.96;100.00;100560.77;1731249;82;22393;-87
2021/09/18 05:53:13;;;;;;;13.88;7.15;;;;;;;17.05;100.00;100551.09;1706288;82;22069;-84
2021/09/18 05:55:41;;;;;;;11.60;6.80;;;;;;;17.13;100.00;100547.17;1706613;83;21062;-86
2021/09/18 05:58:11;;;;;;;10.75;6.95;;;;;;;17.22;100.00;100538.31;1718740;82;21049;-88
2021/09/18 06:00:39;;;;;;;12.93;6.90;;;;;;;17.34;100.00;100544.09;1706210;83;21580;-85
2021/09/18 06:03:06;;;;;;;8.60;6.62;;;;;;;17.44;100.00;100540.84;1715266;82;21085;-84
2021/09/18 06:05:35;;;;;;;15.13;6.75;;;;;;;17.55;100.00;100537.06;1761666;81;20998;-85
2021/09/18 06:08:02;;;;;;;10.43;6.25;;;;;;;17.69;100.00;100537.39;1747958;81;21879;-83
2021/09/18 06:10:30;;;;;;;11.80;6.17;;;;;;;17.81;100.00;100534.27;1748103;81;21074;-84
2021/09/18 06:12:57;;;;;;;12.80;6.12;;;;;;;17.97;100.00;100529.53;1748540;81;21050;-85
2021/09/18 06:15:25;;;;;;;8.78;5.83;;;;;;;18.11;100.00;100528.02;1767778;81;20992;-88
2021/09/18 06:17:52;;;;;;;8.85;5.75;;;;;;;18.25;100.00;100529.66;1748633;80;20963;-89
2021/09/18 06:20:19;;;;;;;10.72;5.75;;;;;;;18.37;100.00;100532.25;1748315;80;21556;-85
2021/09/18 06:22:46;;;;;;;7.20;5.40;;;;;;;18.50;100.00;100529.59;1769523;80;21029;-90
2021/09/18 06:25:15;;;;;;;8.58;5.53;;;;;;;18.65;100.00;100528.37;1739499;81;21062;-88
2021/09/18 06:27:43;;;;;;;6.37;5.30;;;;;;;18.78;100.00;100532.63;1718515;82;21359;-87
2021/09/18 06:30:12;;;;;;;9.40;6.05;;;;;;;18.91;100.00;100530.25;1749420;80;21009;-87
2021/09/18 06:32:39;;;;;;;8.18;5.78;;;;;;;19.01;100.00;100530.06;1683764;84;21089;-89
2021/09/18 06:35:06;;;;;;;11.20;5.55;;;;;;;19.13;100.00;100527.04;1680873;85;21619;-86
2021/09/18 06:37:44;;;;;;;10.98;5.90;;;;;;;19.26;100.00;100525.16;1688499;84;20952;-86
2021/09/18 06:40:17;;;;;;;8.90;5.65;;;;;;;19.47;100.00;100524.52;1704328;83;21055;-87
2021/09/18 06:42:45;;;;;;;12.40;5.85;;;;;;;19.71;100.00;100528.27;1706560;82;21061;-86
2021/09/18 06:45:13;;;;;;;10.00;5.80;;;;;;;19.97;100.00;100526.28;1673500;83;21140;-88
2021/09/18 06:47:41;;;;;;;8.80;5.55;;;;;;;20.18;100.00;100524.27;1724231;82;21006;-86
2021/09/18 06:50:11;;;;;;;11.85;5.70;;;;;;;20.36;100.00;100517.78;1708632;83;21607;-86
2021/09/18 06:52:38;;;;;;;5.87;4.62;;;;;;;20.49;100.00;100524.59;1684087;84;21533;-86
2021/09/18 06:55:07;;;;;;;8.43;4.72;;;;;;;20.59;100.00;100515.05;1688934;84;21085;-83
2021/09/18 06:57:38;;;;;;;6.15;3.92;;;;;;;20.67;100.00;100515.46;1711924;82;21093;-86
2021/09/18 07:00:04;;;;;;;6.55;4.33;;;;;;;20.71;100.00;100509.59;1662556;84;21057;-86
2021/09/18 07:02:31;;;;;;;5.85;4.50;;;;;;;20.73;100.00;100508.14;1688809;84;21108;-85
2021/09/18 07:05:00;;;;;;;10.03;4.80;;;;;;;20.73;100.00;100513.42;1730426;82;21131;-82
2021/09/18 07:07:29;;;;;;;8.83;4.20;;;;;;;20.74;100.00;100503.16;1732908;82;21564;-84
2021/09/18 07:09:57;;;;;;;7.72;4.47;;;;;;;20.76;97.14;100502.45;1711998;82;21026;-83
2021/09/18 07:12:24;;;;;;;23.75;5.42;;;;;;;20.78;94.42;100503.94;1711886;82;21003;-86
2021/09/18 07:14:51;;;;;;;5.10;4.55;;;;;;;20.85;100.00;100507.16;1711880;82;21023;-85
2021/09/18 07:17:19;;;;;;;6.25;4.40;;;;;;;20.96;100.00;100498.23;1673596;82;21082;-84
2021/09/18 07:19:46;;;;;;;13.85;5.45;;;;;;;21.10;98.45;100497.87;1702725;83;21593;-86
2021/09/18 07:22:13;;;;;;;8.10;5.20;;;;;;;21.22;88.17;100502.66;1709783;83;21133;-84
2021/09/18 07:24:41;;;;;;;8.95;5.45;;;;;;;21.34;83.09;100502.98;1709442;83;21050;-83
2021/09/18 07:27:08;;;;;;;6.30;4.53;;;;;;;21.44;80.04;100497.67;1708721;82;21541;-85
2021/09/18 07:29:36;;;;;;;8.90;4.40;;;;;;;21.54;81.49;100497.38;1711136;82;21128;-86
2021/09/18 07:32:05;;;;;;;8.73;4.67;;;;;;;21.64;80.48;100493.09;1702684;84;21028;-85
2021/09/18 07:34:31;;;;;;;6.67;4.72;;;;;;;21.66;72.29;100488.43;1687932;82;21069;-85
2021/09/18 07:36:58;;;;;;;9.20;4.50;;;;;;;21.66;73.48;100484.45;1675893;84;20964;-86
2021/09/18 07:39:27;;;;;;;8.20;4.87;;;;;;;21.64;79.38;100487.80;1698587;82;21525;-87
2021/09/18 07:41:54;;;;;;;8.98;4.00;;;;;;;21.65;79.84;100488.11;1707329;82;21165;-85
2021/09/18 07:44:21;;;;;;;11.78;4.65;;;;;;;21.68;77.92;100488.23;1679087;84;21049;-84
2021/09/18 07:46:51;;;;;;;8.03;4.22;;;;;;;21.70;75.94;100487.54;1706272;84;21035;-87
2021/09/18 07:49:19;;;;;;;14.47;9.20;;;;;;;21.74;72.42;100483.48;1711636;82;21601;-87
2021/09/18 07:51:46;;;;;;;10.95;6.00;;;;;;;21.73;73.28;100479.19;1697795;82;20955;-86
2021/09/18 07:54:14;;;;;;;7.60;4.90;;;;;;;21.70;76.68;100482.24;1710130;82;21780;-85
2021/09/18 07:56:41;;;;;;;6.67;4.40;;;;;;;21.68;77.91;100476.30;1704538;82;21023;-87
2021/09/18 07:59:08;;;;;;;10.20;5.72;;;;;;;21.64;79.94;100475.88;1685473;84;21467;-85
2021/09/18 08:01:36;;;;;;;8.75;5.40;;;;;;;21.65;82.98;100481.97;1711857;82;21026;-85
2021/09/18 08:04:03;;;;;;;8.95;4.65;;;;;;;21.67;82.08;100472.82;1732566;82;21564;-85
2021/09/18 08:06:33;;;;;;;10.63;4.50;;;;;;;21.69;79.27;100468.16;1711805;82;21028;-86
2021/09/18 08:09:06;;;;;;;7.78;4.20;;;;;;;21.69;78.66;100475.30;1712297;82;22010;-85
2021/09/18 08:11:34;;;;;;;7.20;4.05;;;;;;;21.67;79.58;100472.82;1733125;82;21517;-84
2021/09/18 08:14:02;;;;;;;7.95;4.05;;;;;;;21.65;77.51;100472.22;1732976;82;21010;-84
2021/09/18 08:16:30;;;;;;;6.03;3.92;;;;;;;21.63;77.93;100477.40;1711720;82;21597;-84
2021/09/18 08:18:58;;;;;;;6.10;4.17;;;;;;;21.59;80.14;100476.97;1733119;82;21130;-85
2021/09/18 08:21:25;;;;;;;9.55;4.20;;;;;;;21.58;83.16;100474.00;1712011;82;21061;-85
2021/09/18 08:23:52;;;;;;;5.72;3.90;;;;;;;21.56;83.61;100474.13;1712138;82;21015;-84
2021/09/18 08:26:19;;;;;;;7.15;4.12;;;;;;;21.55;83.02;100469.04;1688236;82;21058;-85
2021/09/18 08:28:46;;;;;;;9.05;4.30;;;;;;;21.55;83.92;100469.04;1689350;84;21019;-86
2021/09/18 08:31:13;;;;;;;17.95;4.28;;;;;;;21.52;84.45;100466.27;1736452;82;21058;-84
2021/09/18 08:33:40;;;;;;;7.62;4.15;;;;;;;21.49;84.38;100471.13;1688542;82;21015;-84
2021/09/18 08:36:07;;;;;;;8.35;3.60;;;;;;;21.43;83.37;100472.70;1733062;82;21093;-86
2021/09/18 08:38:34;;;;;;;7.35;3.70;;;;;;;21.35;83.74;100468.34;1688789;82;20999;-83
2021/09/18 08:41:02;;;;;;;9.15;4.12;;;;;;;21.27;86.21;100463.21;1732956;82;21015;-82
2021/09/18 08:43:30;;;;;;;11.60;4.50;;;;;;;21.22;87.80;100466.42;1712068;82;21066;-82
2021/09/18 08:45:59;;;;;;;7.08;3.95;;;;;;;21.19;91.97;100465.47;1711943;82;21003;-83
2021/09/18 08:48:28;;;;;;;5.90;3.98;;;;;;;21.22;90.12;100460.30;1732740;82;21583;-82
2021/09/18 08:50:55;;;;;;;10.70;3.83;;;;;;;21.23;88.26;100461.42;1703846;82;20963;-86
2021/09/18 08:53:23;;;;;;;11.88;4.22;;;;;;;21.25;83.43;100457.28;1703404;82;20995;-84
2021/09/18 08:55:57;;;;;;;11.57;4.78;;;;;;;21.24;97.03;100463.06;1679452;83;21848;-85
2021/09/18 08:58:25;;;;;;;9.90;4.22;;;;;;;21.18;100.00;100465.15;1702953;83;21066;-84
2021/09/18 09:00:56;;;;;;;12.73;4.55;;;;;;;21.06;100.00;100459.53;1713304;83;21038;-85
2021/09/18 09:03:31;;;;;;;6.77;3.77;;;;;;;20.97;100.00;100454.05;1702509;83;21080;-84
2021/09/18 09:06:09;;;;;;;5.92;3.87;;;;;;;20.90;100.00;100451.84;1679456;83;21141;-85
2021/09/18 09:08:38;;;;;;;9.48;3.72;;;;;;;20.85;100.00;100443.65;1702301;83;21843;-82
2021/09/18 09:11:23;;;;;;;8.08;3.85;;;;;;;20.84;100.00;100447.30;1702898;82;20947;-85
2021/09/18 09:14:10;;;;;;;7.47;4.40;;;;;;;20.84;100.00;100449.43;1679350;83;21037;-86
2021/09/18 09:16:56;;;;;;;11.75;4.40;;;;;;;20.87;100.00;100445.61;1703749;83;21549;-85
2021/09/18 09:19:24;;;;;;;14.90;4.65;;;;;;;20.89;94.18;100448.87;1701387;83;21085;-84
2021/09/18 09:21:54;;;;;;;9.05;3.87;;;;;;;20.90;100.00;100442.57;1713456;82;21534;-84
2021/09/18 09:24:24;;;;;;;5.45;3.92;;;;;;;20.85;100.00;100444.45;1713345;83;21086;-84
2021/09/18 09:27:15;;;;;;;7.25;5.00;;;;;;;20.73;100.00;100445.45;1713339;82;21136;-83
2021/09/18 09:29:52;;;;;;;8.10;4.60;;;;;;;20.58;100.00;100443.31;1713376;82;21534;-87
2021/09/18 09:32:37;;;;;;;13.62;5.70;;;;;;;20.41;100.00;100452.77;1703467;83;21082;-85
2021/09/18 09:35:15;;;;;;;7.53;4.83;;;;;;;20.26;100.00;100454.13;1713346;82;21486;-84
2021/09/18 09:37:55;;;;;;;9.95;5.78;;;;;;;20.11;100.00;100444.86;1713214;82;21097;-85
2021/09/18 09:40:43;;;;;;;8.90;5.05;;;;;;;20.00;100.00;100447.95;1713335;82;21037;-86
2021/09/18 09:43:13;;;;;;;10.03;4.60;;;;;;;19.89;100.00;100447.09;1713574;82;21053;-84
2021/09/18 09:45:41;;;;;;;7.25;4.42;;;;;;;19.82;100.00;100446.47;1713441;82;21545;-85
2021/09/18 09:48:15;;;;;;;10.72;4.83;;;;;;;19.76;100.00;100445.84;1699740;82;21235;-85
2021/09/18 09:50:45;;;;;;;7.62;4.62;;;;;;;19.72;100.00;100449.86;1664481;85;21572;-83
2021/09/18 09:53:30;;;;;;;15.32;5.40;;;;;;;19.67;100.00;100445.59;1678683;84;21068;-84
2021/09/18 09:55:57;;;;;;;6.87;4.20;;;;;;;19.62;100.00;100440.05;1670348;83;20976;-85
2021/09/18 09:58:25;;;;;;;5.92;4.15;;;;;;;19.60;100.00;100439.39;1700564;84;20964;-84
2021/09/18 10:00:53;;;;;;;7.37;4.28;;;;;;;19.60;100.00;100440.23;1700581;83;21264;-84
2021/09/18 10:03:25;;;;;;;6.45;4.92;;;;;;;19.61;100.00;100437.91;1656960;84;21530;-85
2021/09/18 10:05:54;;;;;;;6.70;4.42;;;;;;;19.61;100.00;100437.91;1700636;84;21564;-84
2021/09/18 10:08:25;;;;;;;8.58;3.87;;;;;;;19.64;100.00;100432.77;1700755;84;21051;-86
2021/09/18 10:10:53;;;;;;;6.67;3.60;;;;;;;19.62;100.00;100434.28;1680818;84;21070;-86
2021/09/18 10:13:26;;;;;;;5.85;3.60;;;;;;;19.61;100.00;100435.76;1680387;84;21061;-83
2021/09/18 10:15:54;;;;;;;9.90;3.67;;;;;;;19.60;100.00;100433.63;1680220;84;21036;-85
2021/09/18 10:18:29;;;;;;;11.20;4.22;;;;;;;19.62;100.00;100432.12;1680198;83;20991;-85
2021/09/18 10:23:26;;;;;;;8.60;4.10;;;;;;;19.62;100.00;100436.08;1701227;84;20896;-86
2021/09/18 10:25:57;;;;;;;5.53;3.80;;;;;;;19.62;100.00;100429.48;1680109;84;21097;-86
2021/09/18 10:28:27;;;;;;;;;;;;;;;19.63;100.00;100426.65;1659538;84;21232;-85
2021/09/18 10:30:57;;;;;;;;;;;;;;;19.65;100.00;100426.49;1700076;84;20335;-85
2021/09/18 10:33:35;;;;;;;7.53;4.15;;;;;;;19.67;100.00;100429.27;1700690;84;20442;-86
2021/09/18 10:36:16;;;;;;;6.00;4.37;;;;;;;19.72;100.00;100428.73;1680207;84;21093;-84
2021/09/18 10:38:52;;;;;;;10.78;4.47;;;;;;;19.73;100.00;100425.09;1700436;83;21234;-85
2021/09/18 10:41:26;;;;;;;7.35;4.60;;;;;;;19.78;100.00;100424.04;1680232;84;21032;-84
2021/09/18 10:43:59;;;;;;;10.60;4.67;;;;;;;19.82;100.00;100422.69;1680276;84;21672;-86
2021/09/18 10:46:48;;;;;;;8.83;4.87;;;;;;;19.85;100.00;100412.29;1679715;84;21023;-84
2021/09/18 10:49:35;;;;;;;7.10;4.40;;;;;;;19.89;100.00;100410.91;1680430;84;21074;-83
2021/09/18 10:52:33;;;;;;;8.63;4.28;;;;;;;19.92;100.00;100411.88;1680036;84;21949;-84
2021/09/18 10:55:10;;;;;;;10.68;4.70;;;;;;;19.97;100.00;100410.82;1700405;84;21557;-84
2021/09/18 10:57:48;;;;;;;7.35;4.42;;;;;;;20.03;100.00;100417.72;1680521;84;21038;-82
2021/09/18 11:00:24;;;;;;;6.55;4.70;;;;;;;20.06;100.00;100413.37;1700652;83;21197;-84
2021/09/18 11:02:54;;;;;;;8.33;4.40;;;;;;;20.09;100.00;100406.41;1680027;84;21518;-82
2021/09/18 11:05:29;;;;;;;8.00;4.60;;;;;;;20.13;100.00;100403.22;1700397;83;21152;-85
2021/09/18 11:08:00;;;;;;;8.53;4.40;;;;;;;20.19;100.00;100404.28;1680126;84;21541;-86
2021/09/18 11:10:34;;;;;;;5.92;4.58;;;;;;;20.24;100.00;100401.09;1699585;83;21050;-82
2021/09/18 11:13:14;;;;;;;7.95;4.50;;;;;;;20.28;100.00;100400.55;1700663;84;21034;-85
2021/09/18 11:15:51;;;;;;;6.22;4.33;;;;;;;20.34;100.00;100398.98;1700217;83;21129;-86
2021/09/18 11:18:42;;;;;;;8.60;4.15;;;;;;;20.41;100.00;100392.47;1700656;84;21455;-85
2021/09/18 11:21:18;;;;;;;8.50;4.33;;;;;;;20.49;100.00;100391.84;1700629;84;21974;-83
2021/09/18 11:23:54;;;;;;;8.70;5.33;;;;;;;20.58;100.00;100387.77;1677003;84;21105;-86